Time;durP1;ratioP1;P1;durP2;ratioP2;P2;SDS_P1;SDS_P2;PMS_P1;PMS_P2;Temp;Humidity;BMP_temperature;BMP_pressure;BME280_temperature;BME280_humidity;BME280_pressure;Samples;Min_cycle;Max_cycle;Signal;HPM_P1;HPM_P2
2023/08/09 00:01:17;;;;;;;7.38;3.40;;;12.60;99.90;;;;;;5010708;28;20748;-65
2023/08/09 00:03:44;;;;;;;6.38;3.00;;;12.70;99.90;;;;;;5030680;28;20313;-65
2023/08/09 00:06:10;;;;;;;15.75;4.40;;;12.70;99.90;;;;;;5029494;28;20197;-65
2023/08/09 00:08:37;;;;;;;12.15;3.97;;;12.60;99.90;;;;;;5032242;28;20201;-65
2023/08/09 00:11:04;;;;;;;7.95;3.17;;;12.60;99.90;;;;;;5031665;28;20202;-65
2023/08/09 00:13:31;;;;;;;6.07;3.30;;;12.70;99.90;;;;;;5027501;28;20222;-65
2023/08/09 00:15:59;;;;;;;7.18;3.10;;;12.70;99.90;;;;;;5011675;28;20214;-65
2023/08/09 00:18:26;;;;;;;6.05;3.10;;;12.40;99.90;;;;;;5027817;28;20232;-65
2023/08/09 00:20:52;;;;;;;5.82;3.58;;;12.60;99.90;;;;;;5024414;28;20201;-65
2023/08/09 00:23:21;;;;;;;9.95;3.38;;;12.60;99.90;;;;;;5030421;28;20202;-65
2023/08/09 00:25:47;;;;;;;11.55;3.70;;;12.60;99.90;;;;;;5029464;28;20206;-65
2023/08/09 00:28:14;;;;;;;8.43;3.95;;;12.60;99.90;;;;;;5033042;28;20198;-65
2023/08/09 00:30:41;;;;;;;10.07;3.78;;;12.60;99.90;;;;;;5035749;28;20204;-65
2023/08/09 00:33:09;;;;;;;8.50;3.80;;;12.50;99.90;;;;;;5014907;28;20244;-65
2023/08/09 00:35:36;;;;;;;5.82;3.85;;;12.50;99.90;;;;;;5034453;28;20203;-65
2023/08/09 00:38:03;;;;;;;9.27;4.40;;;12.50;99.90;;;;;;5028537;28;20209;-65
2023/08/09 00:40:30;;;;;;;6.82;3.60;;;12.40;99.90;;;;;;5034523;28;20247;-65
2023/08/09 00:42:57;;;;;;;8.52;3.88;;;12.50;99.90;;;;;;5035114;28;20202;-65
2023/08/09 00:45:23;;;;;;;7.50;3.92;;;12.50;99.90;;;;;;5028724;28;20204;-66
2023/08/09 00:47:50;;;;;;;9.07;3.95;;;12.50;99.90;;;;;;5018936;28;20217;-65
2023/08/09 00:50:19;;;;;;;3.95;3.10;;;12.60;99.90;;;;;;5034595;28;20201;-65
2023/08/09 00:52:46;;;;;;;6.72;3.50;;;12.50;99.90;;;;;;5035915;28;20240;-65
2023/08/09 00:55:13;;;;;;;7.55;3.45;;;12.40;99.90;;;;;;5035823;28;20569;-66
2023/08/09 00:57:40;;;;;;;6.15;3.15;;;12.40;99.90;;;;;;5028823;28;20201;-65
2023/08/09 01:00:09;;;;;;;7.72;2.92;;;12.50;99.90;;;;;;5033388;28;20205;-65
2023/08/09 01:02:36;;;;;;;5.68;2.33;;;12.40;99.90;;;;;;5013784;28;20208;-65
2023/08/09 01:05:04;;;;;;;4.90;2.55;;;12.50;99.90;;;;;;5033709;28;20229;-65
2023/08/09 01:07:36;;;;;;;3.28;2.40;;;12.40;99.90;;;;;;5032539;28;20946;-65
2023/08/09 01:10:12;;;;;;;4.75;2.22;;;12.40;99.90;;;;;;5036688;28;20212;-65
2023/08/09 01:12:41;;;;;;;4.78;2.30;;;12.40;99.90;;;;;;5032076;28;20233;-65
2023/08/09 01:15:12;;;;;;;5.70;2.03;;;12.40;99.90;;;;;;5037121;28;20231;-69
2023/08/09 01:17:40;;;;;;;5.07;1.77;;;9.90;99.90;;;;;;5012004;28;20294;-65
2023/08/09 01:20:11;;;;;;;4.57;2.10;;;12.40;99.90;;;;;;5041512;28;20205;-65
2023/08/09 01:22:42;;;;;;;5.50;1.80;;;12.40;99.90;;;;;;5036061;28;20216;-65
2023/08/09 01:25:10;;;;;;;4.35;1.80;;;12.40;99.90;;;;;;5035415;28;20232;-66
2023/08/09 01:27:38;;;;;;;5.00;1.52;;;12.40;99.90;;;;;;5029725;28;20256;-65
2023/08/09 01:30:08;;;;;;;3.53;1.55;;;12.40;99.90;;;;;;5033505;28;20194;-65
2023/08/09 01:32:36;;;;;;;2.63;1.38;;;12.50;99.90;;;;;;5011982;28;20253;-65
2023/08/09 01:35:03;;;;;;;4.43;1.60;;;12.50;99.90;;;;;;5033991;28;20198;-65
2023/08/09 01:37:35;;;;;;;3.60;1.60;;;12.50;99.90;;;;;;5034913;28;20202;-65
2023/08/09 01:40:08;;;;;;;6.25;1.58;;;12.50;99.90;;;;;;5030074;28;20198;-65
2023/08/09 01:42:37;;;;;;;3.75;1.65;;;12.60;99.90;;;;;;5033535;28;20205;-65
2023/08/09 01:45:05;;;;;;;3.25;1.40;;;12.60;99.90;;;;;;5036191;28;20563;-65
2023/08/09 01:47:32;;;;;;;5.97;1.70;;;12.50;99.90;;;;;;5034539;28;20248;-65
2023/08/09 01:49:59;;;;;;;1.75;1.35;;;12.50;99.90;;;;;;5014121;28;20275;-65
2023/08/09 01:52:26;;;;;;;4.05;1.42;;;12.50;99.90;;;;;;5030046;28;20231;-65
2023/08/09 01:54:53;;;;;;;3.78;1.42;;;12.50;99.90;;;;;;5033821;28;20200;-65
2023/08/09 01:57:20;;;;;;;7.53;1.70;;;11.60;99.90;;;;;;5034381;28;20194;-65
2023/08/09 01:59:48;;;;;;;2.55;1.60;;;12.50;99.90;;;;;;5032382;28;20221;-65
2023/08/09 02:02:15;;;;;;;4.60;1.40;;;12.60;99.90;;;;;;5036818;28;20207;-68
2023/08/09 02:04:42;;;;;;;2.72;1.17;;;12.50;99.90;;;;;;5013127;28;21825;-65
2023/08/09 02:07:09;;;;;;;4.22;1.30;;;12.50;99.90;;;;;;5031058;28;20228;-66
2023/08/09 02:09:36;;;;;;;2.70;1.50;;;12.50;99.90;;;;;;5031720;28;20209;-65
2023/08/09 02:12:03;;;;;;;3.90;1.50;;;12.50;99.90;;;;;;5032516;28;20244;-65
2023/08/09 02:14:29;;;;;;;4.38;1.48;;;12.50;99.90;;;;;;5030443;28;20544;-65
2023/08/09 02:16:59;;;;;;;4.22;1.33;;;12.60;99.90;;;;;;5035111;28;20199;-65
2023/08/09 02:19:26;;;;;;;2.53;1.33;;;12.60;99.90;;;;;;5009863;28;20305;-70
2023/08/09 02:21:52;;;;;;;4.47;1.85;;;12.50;99.90;;;;;;5031524;28;20200;-65
2023/08/09 02:24:21;;;;;;;3.33;1.60;;;11.80;99.90;;;;;;5032090;28;20218;-66
2023/08/09 02:26:47;;;;;;;6.60;1.73;;;12.50;99.90;;;;;;5032285;28;20548;-65
2023/08/09 02:29:14;;;;;;;4.82;1.60;;;12.50;99.90;;;;;;5036158;28;20710;-69
2023/08/09 02:31:41;;;;;;;5.80;1.25;;;12.50;99.90;;;;;;5032919;28;20202;-65
2023/08/09 02:34:09;;;;;;;6.15;2.00;;;12.40;99.90;;;;;;5010591;28;20221;-70
2023/08/09 02:36:36;;;;;;;3.22;1.40;;;12.50;99.90;;;;;;5027929;28;20281;-65
2023/08/09 02:39:04;;;;;;;5.60;2.28;;;12.50;99.90;;;;;;5036029;28;20583;-65
2023/08/09 02:41:31;;;;;;;4.45;1.63;;;12.50;99.90;;;;;;5027410;28;20202;-65
2023/08/09 02:43:59;;;;;;;5.45;2.00;;;12.50;99.90;;;;;;5033820;28;20586;-65
2023/08/09 02:46:25;;;;;;;4.68;1.83;;;12.40;99.90;;;;;;5027992;28;20201;-65
2023/08/09 02:48:52;;;;;;;4.05;1.80;;;12.40;99.90;;;;;;5011966;28;20702;-65
2023/08/09 02:51:20;;;;;;;4.93;1.73;;;12.40;99.90;;;;;;5028595;28;20722;-66
2023/08/09 02:54:01;;;;;;;6.15;1.85;;;12.40;99.90;;;;;;5032648;28;20232;-66
2023/08/09 02:56:28;;;;;;;1.60;1.50;;;12.50;99.90;;;;;;5034522;28;20198;-65
2023/08/09 02:58:55;;;;;;;2.42;1.75;;;12.40;99.90;;;;;;5027168;28;20193;-65
2023/08/09 03:01:22;;;;;;;3.35;1.90;;;12.40;99.90;;;;;;5031773;28;20204;-65
2023/08/09 03:03:50;;;;;;;6.22;1.90;;;12.70;99.90;;;;;;5024873;28;21588;-66
2023/08/09 03:06:18;;;;;;;2.92;1.77;;;12.30;99.90;;;;;;5015301;28;20209;-65
2023/08/09 03:08:46;;;;;;;3.03;1.52;;;12.30;99.90;;;;;;5031239;28;20190;-65
2023/08/09 03:11:13;;;;;;;3.05;1.85;;;12.40;99.90;;;;;;5027090;28;20197;-65
2023/08/09 03:13:40;;;;;;;2.45;2.03;;;12.40;99.90;;;;;;5032273;28;20233;-65
2023/08/09 03:16:07;;;;;;;2.60;1.90;;;12.30;99.90;;;;;;5027983;28;20212;-66
2023/08/09 03:18:34;;;;;;;2.78;2.00;;;12.30;99.90;;;;;;5028815;28;20216;-65
2023/08/09 03:21:01;;;;;;;5.35;2.08;;;12.20;99.90;;;;;;5010909;28;20230;-66
2023/08/09 03:23:28;;;;;;;3.20;1.80;;;12.20;99.90;;;;;;5034253;28;20681;-65
2023/08/09 03:25:56;;;;;;;6.47;2.45;;;12.70;99.90;;;;;;5029387;28;20198;-65
2023/08/09 03:28:23;;;;;;;2.78;2.35;;;12.20;99.90;;;;;;5032354;28;20206;-65
2023/08/09 03:30:50;;;;;;;8.23;2.47;;;12.20;99.90;;;;;;5032265;28;20201;-65
2023/08/09 03:33:17;;;;;;;3.42;2.60;;;12.20;99.90;;;;;;5025391;28;20220;-65
2023/08/09 03:35:44;;;;;;;5.78;2.67;;;12.20;99.90;;;;;;5033522;28;20189;-65
2023/08/09 03:38:11;;;;;;;3.05;2.47;;;12.20;99.90;;;;;;5007216;28;20300;-65
2023/08/09 03:40:38;;;;;;;4.43;2.15;;;12.20;99.90;;;;;;5029010;28;20194;-65
2023/08/09 03:43:06;;;;;;;4.53;2.28;;;12.00;99.90;;;;;;5025285;28;20217;-65
2023/08/09 03:45:32;;;;;;;3.97;2.42;;;12.20;99.90;;;;;;5032342;28;20209;-65
2023/08/09 03:47:59;;;;;;;3.90;2.00;;;12.10;99.90;;;;;;5029573;28;20208;-66
2023/08/09 03:50:26;;;;;;;5.03;2.80;;;12.10;99.90;;;;;;5032376;28;20205;-65
2023/08/09 03:52:53;;;;;;;2.47;2.00;;;12.10;99.90;;;;;;5013218;28;20221;-66
2023/08/09 03:55:20;;;;;;;3.08;2.20;;;12.10;99.90;;;;;;5030128;28;20205;-65
2023/08/09 03:57:47;;;;;;;8.63;2.58;;;12.00;99.90;;;;;;5033532;28;20210;-66
2023/08/09 04:00:17;;;;;;;5.80;2.35;;;11.90;99.90;;;;;;5028150;28;21464;-65
2023/08/09 04:02:45;;;;;;;4.32;2.60;;;12.10;99.90;;;;;;5030241;28;20229;-65
2023/08/09 04:05:12;;;;;;;3.67;2.22;;;11.90;99.90;;;;;;5031212;28;20206;-65
2023/08/09 04:07:39;;;;;;;2.83;2.20;;;12.00;99.90;;;;;;5013958;28;20213;-65
2023/08/09 04:10:08;;;;;;;3.92;2.63;;;12.00;99.90;;;;;;5030198;28;20202;-65
2023/08/09 04:12:35;;;;;;;4.15;2.35;;;12.00;99.90;;;;;;5035406;28;20208;-65
2023/08/09 04:15:03;;;;;;;3.97;2.08;;;;;;;;;;5033435;28;20226;-67
2023/08/09 04:17:32;;;;;;;2.70;2.42;;;12.10;99.90;;;;;;5032782;28;20649;-65
2023/08/09 04:19:59;;;;;;;3.17;2.40;;;12.00;99.90;;;;;;5019179;28;20206;-65
2023/08/09 04:22:26;;;;;;;5.65;2.85;;;12.00;99.90;;;;;;5010638;28;20225;-65
2023/08/09 04:24:52;;;;;;;6.00;3.03;;;12.10;99.90;;;;;;5033825;28;20667;-66
2023/08/09 04:27:19;;;;;;;3.75;2.35;;;12.10;99.90;;;;;;5030884;28;20201;-65
2023/08/09 04:29:46;;;;;;;4.90;2.40;;;12.10;99.90;;;;;;5031273;28;20581;-65
2023/08/09 04:32:13;;;;;;;6.50;2.88;;;12.10;99.90;;;;;;5028471;28;20213;-66
2023/08/09 04:34:42;;;;;;;5.18;2.53;;;12.20;99.90;;;;;;5031328;28;20229;-66
2023/08/09 04:37:08;;;;;;;3.28;2.42;;;12.20;99.90;;;;;;5018495;28;20202;-65
2023/08/09 04:39:35;;;;;;;4.55;2.45;;;12.10;99.90;;;;;;5014652;28;20221;-69
2023/08/09 04:42:03;;;;;;;2.58;2.00;;;12.30;99.90;;;;;;5031967;28;20325;-65
2023/08/09 04:44:30;;;;;;;5.90;2.45;;;12.20;99.90;;;;;;5032697;28;20209;-66
2023/08/09 04:46:58;;;;;;;5.50;2.28;;;12.20;99.90;;;;;;5028822;28;20306;-65
2023/08/09 04:49:25;;;;;;;2.83;2.40;;;12.20;99.90;;;;;;5034262;28;20296;-65
2023/08/09 04:51:53;;;;;;;7.20;2.60;;;12.20;99.90;;;;;;5029093;28;20202;-66
2023/08/09 04:54:20;;;;;;;4.22;2.45;;;12.20;99.90;;;;;;5012253;28;20418;-65
2023/08/09 04:56:48;;;;;;;7.55;2.60;;;12.20;99.90;;;;;;5031140;28;20290;-65
2023/08/09 04:59:14;;;;;;;5.30;2.65;;;12.20;99.90;;;;;;5034051;28;20205;-65
2023/08/09 05:01:41;;;;;;;4.47;2.55;;;12.20;99.90;;;;;;5027765;28;20676;-65
2023/08/09 05:04:08;;;;;;;6.82;2.22;;;12.20;99.90;;;;;;5029784;28;20343;-66
2023/08/09 05:06:36;;;;;;;3.53;2.45;;;12.20;99.90;;;;;;5031307;28;20208;-66
2023/08/09 05:09:04;;;;;;;5.53;2.67;;;12.20;99.90;;;;;;5007883;28;20214;-65
2023/08/09 05:11:31;;;;;;;5.38;2.33;;;12.30;99.90;;;;;;5032385;28;20212;-66
2023/08/09 05:13:58;;;;;;;5.60;2.78;;;12.30;99.90;;;;;;5033562;28;20240;-65
2023/08/09 05:16:25;;;;;;;5.03;2.53;;;12.30;99.90;;;;;;5034157;28;20208;-65
2023/08/09 05:18:52;;;;;;;6.45;2.70;;;12.30;99.90;;;;;;5037598;28;20210;-66
2023/08/09 05:21:20;;;;;;;12.15;2.80;;;12.50;99.90;;;;;;5037546;28;20205;-65
2023/08/09 05:23:46;;;;;;;4.45;2.50;;;12.50;99.90;;;;;;5036224;28;20282;-65
2023/08/09 05:26:15;;;;;;;3.42;2.22;;;12.60;99.90;;;;;;5016648;28;20201;-65
2023/08/09 05:28:41;;;;;;;5.38;2.58;;;12.50;99.90;;;;;;5038032;28;20681;-66
2023/08/09 05:31:08;;;;;;;5.45;2.58;;;12.50;99.90;;;;;;5036468;28;20202;-66
2023/08/09 05:33:35;;;;;;;2.58;2.33;;;12.50;99.90;;;;;;5033759;28;20584;-67
2023/08/09 05:36:02;;;;;;;9.60;2.95;;;12.50;99.90;;;;;;5036812;28;20227;-65
2023/08/09 05:38:29;;;;;;;5.25;2.60;;;12.50;99.90;;;;;;5033800;28;20201;-65
2023/08/09 05:40:56;;;;;;;4.43;2.80;;;;;;;;;;5013869;28;20206;-66
2023/08/09 05:43:24;;;;;;;4.97;2.90;;;12.40;99.90;;;;;;5019540;28;20620;-66
2023/08/09 05:45:51;;;;;;;4.22;2.28;;;12.60;99.90;;;;;;5033743;28;20197;-66
2023/08/09 05:48:18;;;;;;;4.28;2.53;;;;;;;;;;5032384;28;20221;-66
2023/08/09 05:50:45;;;;;;;4.07;2.63;;;12.60;99.90;;;;;;5037521;28;20210;-65
2023/08/09 05:53:12;;;;;;;2.92;2.42;;;12.70;99.90;;;;;;5033993;28;20202;-66
2023/08/09 05:55:40;;;;;;;4.88;2.63;;;12.70;99.90;;;;;;5014748;28;20706;-66
2023/08/09 05:58:06;;;;;;;7.72;2.60;;;12.70;99.90;;;;;;5028715;28;20201;-66
2023/08/09 06:00:37;;;;;;;4.18;2.58;;;12.70;99.90;;;;;;5031907;28;20197;-65
2023/08/09 06:03:04;;;;;;;4.20;2.17;;;12.70;99.90;;;;;;5034794;28;20253;-69
2023/08/09 06:05:31;;;;;;;3.83;2.35;;;12.90;99.90;;;;;;5030751;28;20253;-66
2023/08/09 06:07:58;;;;;;;6.30;2.40;;;12.80;99.90;;;;;;5032218;28;20225;-65
2023/08/09 06:10:25;;;;;;;5.32;2.47;;;12.80;99.90;;;;;;5014062;28;22075;-66
2023/08/09 06:12:52;;;;;;;5.53;2.67;;;12.80;99.90;;;;;;5028545;28;20210;-65
2023/08/09 06:15:20;;;;;;;9.80;3.67;;;12.90;99.90;;;;;;5032272;28;20225;-66
2023/08/09 06:17:48;;;;;;;3.78;2.83;;;12.90;99.90;;;;;;5035565;28;20677;-65
2023/08/09 06:20:15;;;;;;;5.53;2.33;;;13.00;99.90;;;;;;5029305;28;20213;-66
2023/08/09 06:22:42;;;;;;;5.25;2.40;;;13.00;99.90;;;;;;5033963;28;20816;-65
2023/08/09 06:25:09;;;;;;;6.00;2.90;;;13.10;99.90;;;;;;5029740;28;20208;-66
2023/08/09 06:27:36;;;;;;;2.45;1.67;;;13.10;99.90;;;;;;5008386;28;20233;-65
2023/08/09 06:30:05;;;;;;;3.70;1.95;;;13.30;99.90;;;;;;5038509;28;20190;-66
2023/08/09 06:32:32;;;;;;;5.05;2.35;;;13.30;99.90;;;;;;5033862;28;20204;-65
2023/08/09 06:35:01;;;;;;;6.53;2.05;;;13.40;99.90;;;;;;5035931;28;20971;-67
2023/08/09 06:37:27;;;;;;;3.00;1.92;;;13.90;99.90;;;;;;5028630;28;20328;-66
2023/08/09 06:39:54;;;;;;;2.88;1.77;;;13.50;99.90;;;;;;5032805;28;20224;-66
2023/08/09 06:42:21;;;;;;;4.22;2.17;;;13.60;99.90;;;;;;5012240;28;20292;-66
2023/08/09 06:44:48;;;;;;;3.55;1.85;;;13.60;99.90;;;;;;5032211;28;20210;-66
2023/08/09 06:47:15;;;;;;;2.95;2.08;;;13.70;99.90;;;;;;5030586;28;20249;-66
2023/08/09 06:49:41;;;;;;;6.00;2.00;;;13.70;99.90;;;;;;5033134;28;20194;-65
2023/08/09 06:52:10;;;;;;;3.30;1.80;;;13.90;99.90;;;;;;5032749;28;20772;-65
2023/08/09 06:54:36;;;;;;;6.80;1.50;;;13.90;99.90;;;;;;5030954;28;20213;-65
2023/08/09 06:57:03;;;;;;;3.75;1.60;;;14.00;99.90;;;;;;5027493;28;20201;-66
2023/08/09 06:59:30;;;;;;;4.00;1.50;;;14.20;99.90;;;;;;5022634;28;20207;-66
2023/08/09 07:01:58;;;;;;;6.13;1.80;;;14.10;99.90;;;;;;5029169;28;20194;-66
2023/08/09 07:04:25;;;;;;;2.30;1.52;;;14.30;99.90;;;;;;5030009;28;20233;-65
2023/08/09 07:06:52;;;;;;;1.98;1.42;;;14.30;99.90;;;;;;5034807;28;20263;-66
2023/08/09 07:09:20;;;;;;;4.88;1.95;;;14.60;99.90;;;;;;5028817;28;20205;-66
2023/08/09 07:11:47;;;;;;;6.72;2.47;;;14.70;99.90;;;;;;5020557;28;20356;-66
2023/08/09 07:14:14;;;;;;;2.95;1.13;;;14.70;99.90;;;;;;5014595;28;20225;-66
2023/08/09 07:16:41;;;;;;;9.35;1.80;;;14.90;99.90;;;;;;5030965;28;20332;-66
2023/08/09 07:19:07;;;;;;;6.72;1.17;;;15.00;99.90;;;;;;5033770;28;20303;-65
2023/08/09 07:21:35;;;;;;;2.25;1.00;;;15.00;99.90;;;;;;5033784;28;20212;-66
2023/08/09 07:24:02;;;;;;;1.33;1.02;;;15.00;99.90;;;;;;5032247;28;20220;-66
2023/08/09 07:26:30;;;;;;;3.15;1.50;;;15.00;99.90;;;;;;5034895;28;20228;-66
2023/08/09 07:28:57;;;;;;;6.88;1.20;;;14.90;99.90;;;;;;5009443;28;20202;-66
2023/08/09 07:31:24;;;;;;;3.85;1.30;;;14.90;99.90;;;;;;5034351;28;20198;-65
2023/08/09 07:33:52;;;;;;;4.05;1.38;;;14.90;99.90;;;;;;5018455;28;20226;-67
2023/08/09 07:36:19;;;;;;;3.10;0.88;;;15.00;99.90;;;;;;5032787;28;20996;-66
2023/08/09 07:38:46;;;;;;;5.32;1.08;;;14.90;99.90;;;;;;5031616;28;20200;-67
2023/08/09 07:41:13;;;;;;;4.43;1.35;;;14.90;99.90;;;;;;5035033;28;20212;-66
2023/08/09 07:43:41;;;;;;;3.33;1.67;;;14.90;99.90;;;;;;5024865;28;20202;-67
2023/08/09 07:46:08;;;;;;;1.42;1.10;;;14.90;99.90;;;;;;5024913;28;20289;-66
2023/08/09 07:48:35;;;;;;;6.45;1.20;;;15.00;99.90;;;;;;5034284;28;20666;-66
2023/08/09 07:51:02;;;;;;;9.45;1.30;;;15.00;99.90;;;;;;5030080;28;20201;-66
2023/08/09 07:53:29;;;;;;;7.15;1.27;;;15.10;99.90;;;;;;5036512;28;20199;-66
2023/08/09 07:55:56;;;;;;;3.30;1.40;;;15.20;99.90;;;;;;5032235;28;20248;-66
2023/08/09 07:58:23;;;;;;;4.47;1.50;;;15.30;99.90;;;;;;5034420;28;20227;-66
2023/08/09 08:00:52;;;;;;;5.72;1.48;;;15.60;99.90;;;;;;5009447;28;20213;-66
2023/08/09 08:03:19;;;;;;;3.53;1.40;;;15.60;99.90;;;;;;5033794;28;20247;-66
2023/08/09 08:05:45;;;;;;;9.27;1.25;;;15.60;99.90;;;;;;5020478;28;20209;-67
2023/08/09 08:08:14;;;;;;;6.22;1.30;;;15.60;99.90;;;;;;5031968;28;20240;-66
2023/08/09 08:10:41;;;;;;;2.88;1.20;;;15.70;99.90;;;;;;5030490;28;20209;-66
2023/08/09 08:13:08;;;;;;;6.28;1.48;;;15.60;99.90;;;;;;5032187;28;20694;-66
2023/08/09 08:15:36;;;;;;;1.55;1.10;;;15.60;99.90;;;;;;5015178;28;20967;-66
2023/08/09 08:18:05;;;;;;;3.75;1.40;;;15.80;99.90;;;;;;5030665;28;20201;-66
2023/08/09 08:20:33;;;;;;;3.83;1.00;;;15.80;99.90;;;;;;5030514;28;20201;-66
2023/08/09 08:23:00;;;;;;;8.05;1.55;;;16.00;99.90;;;;;;5028499;28;20698;-66
2023/08/09 08:25:27;;;;;;;2.97;1.30;;;15.90;99.90;;;;;;5035581;28;20285;-66
2023/08/09 08:27:54;;;;;;;1.73;0.90;;;16.00;99.90;;;;;;5030017;28;20190;-67
2023/08/09 08:30:21;;;;;;;6.25;1.30;;;16.00;99.90;;;;;;5027855;28;20198;-66
2023/08/09 08:32:49;;;;;;;4.20;1.05;;;16.10;99.90;;;;;;5013447;28;20204;-67
2023/08/09 08:35:20;;;;;;;7.20;1.30;;;16.10;99.90;;;;;;5033062;28;20714;-66
2023/08/09 08:37:48;;;;;;;3.67;1.00;;;16.40;99.90;;;;;;5032450;28;20203;-66
2023/08/09 08:40:19;;;;;;;3.13;0.95;;;16.60;99.90;;;;;;5032076;28;20194;-66
2023/08/09 08:42:46;;;;;;;2.15;1.13;;;16.50;99.90;;;;;;5028312;28;20213;-67
2023/08/09 08:45:15;;;;;;;6.10;1.35;;;16.50;99.90;;;;;;5027235;28;20205;-66
2023/08/09 08:47:43;;;;;;;2.45;1.00;;;16.90;99.90;;;;;;5015591;28;20225;-66
2023/08/09 08:50:11;;;;;;;0.90;0.85;;;16.80;99.90;;;;;;5036756;28;20203;-66
2023/08/09 08:52:41;;;;;;;3.85;0.90;;;16.80;99.90;;;;;;5034110;28;20201;-66
2023/08/09 08:55:10;;;;;;;5.75;1.50;;;16.80;99.90;;;;;;5038192;28;20232;-66
2023/08/09 08:57:38;;;;;;;1.88;0.90;;;16.70;99.90;;;;;;5033350;28;20995;-68
2023/08/09 09:00:08;;;;;;;4.10;1.30;;;16.70;99.90;;;;;;5034073;28;20252;-66
2023/08/09 09:02:35;;;;;;;1.33;0.95;;;16.60;99.90;;;;;;5018761;28;20237;-66
2023/08/09 09:05:02;;;;;;;3.22;0.90;;;16.90;99.90;;;;;;5023812;28;20578;-66
2023/08/09 09:07:30;;;;;;;10.63;1.33;;;16.90;99.90;;;;;;5034313;28;20573;-66
2023/08/09 09:10:03;;;;;;;3.10;1.25;;;16.60;99.90;;;;;;5031645;28;20200;-66
2023/08/09 09:12:30;;;;;;;2.35;0.95;;;17.10;99.90;;;;;;5035386;28;20576;-66
2023/08/09 09:14:57;;;;;;;6.95;1.20;;;17.00;99.90;;;;;;5031552;28;20237;-66
2023/08/09 09:17:24;;;;;;;3.67;1.25;;;17.00;99.90;;;;;;5017479;28;20221;-66
2023/08/09 09:19:51;;;;;;;4.78;1.02;;;17.10;99.90;;;;;;5023192;28;20202;-66
2023/08/09 09:22:27;;;;;;;4.68;1.33;;;17.30;99.90;;;;;;5037263;28;20903;-66
2023/08/09 09:24:58;;;;;;;1.80;1.05;;;17.30;99.90;;;;;;5032357;28;20201;-66
2023/08/09 09:27:31;;;;;;;6.43;2.60;;;17.30;99.90;;;;;;5032305;28;20201;-66
2023/08/09 09:30:04;;;;;;;11.15;1.55;;;17.20;99.90;;;;;;5030039;28;20284;-66
2023/08/09 09:32:33;;;;;;;2.15;1.02;;;17.20;99.90;;;;;;5016760;28;20241;-66
2023/08/09 09:35:00;;;;;;;1.92;1.00;;;17.30;99.90;;;;;;5025044;28;20233;-66
2023/08/09 09:37:28;;;;;;;3.03;1.08;;;17.20;99.90;;;;;;5034287;28;20212;-66
2023/08/09 09:39:55;;;;;;;1.92;0.85;;;17.30;99.90;;;;;;5028251;28;20202;-66
2023/08/09 09:42:32;;;;;;;4.80;1.20;;;17.30;99.90;;;;;;5033951;28;20205;-66
2023/08/09 09:45:04;;;;;;;1.67;0.80;;;17.70;99.90;;;;;;5028638;28;20202;-66
2023/08/09 09:47:33;;;;;;;3.88;1.25;;;17.70;99.90;;;;;;5013917;28;20233;-66
2023/08/09 09:50:01;;;;;;;2.58;1.00;;;17.50;99.90;;;;;;5030211;28;20210;-65
2023/08/09 09:52:30;;;;;;;2.85;1.33;;;17.50;99.90;;;;;;5027722;28;20209;-65
2023/08/09 09:54:57;;;;;;;5.85;1.23;;;17.20;99.90;;;;;;5031239;28;20232;-66
2023/08/09 09:57:24;;;;;;;2.85;0.98;;;17.20;99.90;;;;;;5034072;28;20236;-65
2023/08/09 09:59:57;;;;;;;4.15;0.90;;;17.00;99.90;;;;;;5029308;28;20201;-66
2023/08/09 10:02:26;;;;;;;4.05;1.13;;;17.00;99.90;;;;;;5032999;28;20870;-65
2023/08/09 10:04:53;;;;;;;3.00;1.08;;;17.10;99.90;;;;;;5014208;28;20229;-66
2023/08/09 10:07:20;;;;;;;2.45;1.25;;;17.00;99.90;;;;;;5033690;28;20573;-65
2023/08/09 10:09:47;;;;;;;2.58;1.15;;;17.10;99.90;;;;;;5033911;28;20202;-66
2023/08/09 10:12:14;;;;;;;3.45;1.35;;;17.10;99.90;;;;;;5028502;28;20232;-66
2023/08/09 10:14:42;;;;;;;2.63;1.65;;;17.10;99.90;;;;;;5022500;28;20225;-66
2023/08/09 10:17:10;;;;;;;2.85;1.00;;;17.20;99.90;;;;;;5035870;28;20214;-66
2023/08/09 10:19:39;;;;;;;3.33;0.95;;;17.30;99.90;;;;;;5013378;28;20217;-66
2023/08/09 10:22:07;;;;;;;6.47;1.38;;;17.30;99.90;;;;;;5034924;28;20312;-66
2023/08/09 10:24:44;;;;;;;1.65;0.93;;;17.40;99.90;;;;;;5034860;28;20200;-65
2023/08/09 10:27:12;;;;;;;4.60;1.17;;;17.50;99.90;;;;;;5031857;28;20197;-65
2023/08/09 10:29:42;;;;;;;5.90;1.05;;;17.50;99.90;;;;;;5034947;28;20209;-66
2023/08/09 10:32:10;;;;;;;4.13;0.98;;;17.40;99.90;;;;;;5032891;28;20207;-66
2023/08/09 10:34:40;;;;;;;6.80;1.58;;;17.60;99.90;;;;;;5016093;28;20216;-66
2023/08/09 10:37:07;;;;;;;2.15;1.02;;;18.10;99.90;;;;;;5035363;28;20233;-70
2023/08/09 10:39:35;;;;;;;3.13;0.90;;;18.10;99.90;;;;;;5033366;28;20201;-65
2023/08/09 10:42:05;;;;;;;1.42;1.00;;;18.20;99.90;;;;;;5033319;28;20202;-66
2023/08/09 10:44:33;;;;;;;3.70;1.13;;;18.30;99.90;;;;;;5035189;28;20202;-65
2023/08/09 10:47:03;;;;;;;1.63;0.80;;;18.50;99.90;;;;;;5035367;28;20201;-66
2023/08/09 10:49:44;;;;;;;2.38;1.10;;;18.50;99.90;;;;;;5016275;28;20201;-67
2023/08/09 10:52:15;;;;;;;1.33;1.00;;;18.70;99.90;;;;;;5025313;28;20637;-66
2023/08/09 10:54:42;;;;;;;1.75;1.00;;;18.80;99.90;;;;;;5031658;28;20226;-70
2023/08/09 10:57:09;;;;;;;2.13;1.02;;;18.90;99.90;;;;;;5035781;28;20200;-65
2023/08/09 10:59:39;;;;;;;3.80;1.08;;;19.00;99.90;;;;;;5033418;28;20205;-66
2023/08/09 11:02:06;;;;;;;3.50;1.13;;;19.00;99.90;;;;;;5032819;28;20219;-65
2023/08/09 11:04:35;;;;;;;6.63;0.95;;;19.10;99.90;;;;;;5030362;28;20229;-65
2023/08/09 11:07:02;;;;;;;1.48;1.00;;;18.80;99.90;;;;;;5017665;28;20201;-65
2023/08/09 11:09:30;;;;;;;4.32;1.40;;;19.00;99.90;;;;;;5033687;28;20730;-65
2023/08/09 11:11:57;;;;;;;2.28;0.88;;;18.90;99.90;;;;;;5033194;28;20202;-66
2023/08/09 11:14:24;;;;;;;2.83;0.80;;;18.90;99.90;;;;;;5036320;28;20207;-65
2023/08/09 11:16:52;;;;;;;3.03;0.93;;;18.80;99.90;;;;;;5033521;28;20583;-66
2023/08/09 11:19:20;;;;;;;2.17;0.88;;;18.60;99.90;;;;;;5026950;28;20205;-65
2023/08/09 11:21:50;;;;;;;1.33;0.73;;;18.60;99.90;;;;;;5009659;28;20600;-66
2023/08/09 11:24:18;;;;;;;2.42;1.15;;;18.60;99.90;;;;;;5031073;28;20204;-66
2023/08/09 11:26:48;;;;;;;5.18;1.75;;;18.50;99.90;;;;;;5027482;28;20205;-66
2023/08/09 11:29:15;;;;;;;1.67;0.98;;;18.50;99.90;;;;;;5033286;28;20208;-65
2023/08/09 11:31:43;;;;;;;2.65;1.23;;;18.50;99.90;;;;;;5030961;28;20205;-66
2023/08/09 11:34:11;;;;;;;1.98;0.90;;;18.40;99.90;;;;;;5023803;28;20224;-65
2023/08/09 11:36:40;;;;;;;2.20;1.13;;;18.60;99.90;;;;;;5012089;28;20225;-67
2023/08/09 11:39:09;;;;;;;2.70;1.20;;;18.70;99.90;;;;;;5032652;28;20576;-66
2023/08/09 11:41:43;;;;;;;1.77;1.02;;;18.70;99.90;;;;;;5032218;28;20233;-68
2023/08/09 11:44:11;;;;;;;2.65;1.02;;;18.40;99.90;;;;;;5030423;28;20208;-66
2023/08/09 11:46:40;;;;;;;0.82;0.80;;;18.00;99.90;;;;;;5031336;28;20202;-66
2023/08/09 11:49:07;;;;;;;0.82;0.70;;;18.10;99.90;;;;;;5025951;28;20809;-65
2023/08/09 11:51:36;;;;;;;3.65;1.17;;;18.10;99.90;;;;;;5013775;28;20832;-65
2023/08/09 11:54:04;;;;;;;6.35;0.90;;;18.00;99.90;;;;;;5028157;28;20197;-65
2023/08/09 11:56:35;;;;;;;3.90;0.98;;;18.00;99.90;;;;;;5034830;28;20785;-65
2023/08/09 11:59:04;;;;;;;1.10;1.00;;;18.00;99.90;;;;;;5031084;28;20201;-65
2023/08/09 12:01:35;;;;;;;1.83;0.73;;;18.10;99.90;;;;;;5029264;28;20198;-65
2023/08/09 12:04:07;;;;;;;1.50;1.00;;;18.00;99.90;;;;;;5028578;28;20232;-65
2023/08/09 12:06:35;;;;;;;1.80;0.70;;;19.10;99.90;;;;;;5024249;28;20202;-66
2023/08/09 12:09:39;;;;;;;1.25;0.90;;;18.70;99.90;;;;;;5016684;28;20205;-65
2023/08/09 12:12:08;;;;;;;2.78;1.10;;;18.90;99.90;;;;;;5031321;28;20632;-65
2023/08/09 12:14:36;;;;;;;1.13;0.90;;;18.90;99.90;;;;;;5033445;28;20805;-66
2023/08/09 12:17:03;;;;;;;3.75;1.27;;;19.20;99.90;;;;;;5027794;28;20233;-65
2023/08/09 12:19:30;;;;;;;1.17;0.93;;;19.30;99.90;;;;;;5032144;28;20190;-66
2023/08/09 12:21:59;;;;;;;1.60;1.10;;;19.30;99.90;;;;;;5020651;28;20561;-66
2023/08/09 12:24:26;;;;;;;1.45;1.10;;;19.30;99.90;;;;;;5013201;28;20726;-66
2023/08/09 12:26:54;;;;;;;3.13;1.10;;;19.20;99.90;;;;;;5030050;28;20208;-66
2023/08/09 12:29:22;;;;;;;2.05;0.98;;;19.30;99.90;;;;;;5032902;28;20197;-65
2023/08/09 12:31:49;;;;;;;1.15;0.80;;;19.30;99.90;;;;;;5026859;28;20202;-65
2023/08/09 12:34:16;;;;;;;5.50;1.02;;;19.50;99.90;;;;;;5028008;28;20582;-66
2023/08/09 12:36:43;;;;;;;1.65;1.00;;;19.50;99.90;;;;;;5024777;28;20606;-65
2023/08/09 12:39:11;;;;;;;1.90;0.95;;;19.30;99.90;;;;;;5012385;28;20225;-66
2023/08/09 12:41:38;;;;;;;0.88;0.88;;;19.40;99.90;;;;;;5030981;28;20204;-65
2023/08/09 12:44:08;;;;;;;1.58;1.10;;;19.40;99.90;;;;;;5032164;28;20205;-65
2023/08/09 12:46:34;;;;;;;2.75;1.00;;;19.60;99.90;;;;;;5026777;28;20699;-65
2023/08/09 12:49:02;;;;;;;3.55;0.90;;;19.60;99.90;;;;;;5030453;28;20204;-65
2023/08/09 12:51:29;;;;;;;0.82;0.80;;;19.50;99.90;;;;;;5029980;28;20197;-65